Time;durP1;ratioP1;P1;durP2;ratioP2;P2;SDS_P1;SDS_P2;PMS_P1;PMS_P2;Temp;Humidity;BMP_temperature;BMP_pressure;BME280_temperature;BME280_humidity;BME280_pressure;Samples;Min_cycle;Max_cycle;Signal;HPM_P1;HPM_P2
2024/02/20 00:00:07;;;;;;;;;;;;;;;-4.81;100.00;101628.10;109499;1251;65700;-55
2024/02/20 00:02:44;;;;;;;;;;;;;;;-4.82;100.00;101628.97;109458;1251;71002;-54
2024/02/20 00:05:12;;;;;;;;;;;;;;;-4.82;100.00;101626.44;109492;1251;59770;-55
2024/02/20 00:07:40;;;;;;;;;;;;;;;-4.81;100.00;101626.41;109523;1251;59757;-54
2024/02/20 00:10:08;;;;;;;;;;;;;;;-4.81;100.00;101627.93;109508;1251;75574;-55
2024/02/20 00:12:42;;;;;;;;;;;;;;;-4.82;100.00;101627.44;109531;1251;67358;-54
2024/02/20 00:15:10;;;;;;;;;;;;;;;-4.82;100.00;101628.14;109482;1251;71446;-54
2024/02/20 00:17:37;;;;;;;;;;;;;;;-4.80;100.00;101630.44;109469;1251;62068;-55
2024/02/20 00:20:05;;;;;;;;;;;;;;;-4.76;100.00;101631.13;109528;1251;59912;-54
2024/02/20 00:22:33;;;;;;;;;;;;;;;-4.69;100.00;101632.60;109506;1251;75548;-54
2024/02/20 00:25:01;;;;;;;;;;;;;;;-4.61;100.00;101634.05;109487;1250;66978;-60
2024/02/20 00:27:30;;;;;;;;;;;;;;;-4.52;100.00;101629.69;109495;1251;73083;-55
2024/02/20 00:29:58;;;;;;;;;;;;;;;-4.44;100.00;101628.54;109468;1250;60316;-54
2024/02/20 00:32:26;;;;;;;;;;;;;;;-4.37;100.00;101627.45;109491;1251;59756;-54
2024/02/20 00:34:53;;;;;;;;;;;;;;;-4.30;100.00;101624.66;109511;1250;74214;-55
2024/02/20 00:37:21;;;;;;;;;;;;;;;-4.25;100.00;101621.73;109470;1251;65797;-55
2024/02/20 00:39:48;;;;;;;;;;;;;;;-4.18;100.00;101627.60;109492;1251;72678;-54
2024/02/20 00:42:18;;;;;;;;;;;;;;;-4.12;100.00;101630.47;109492;1250;60199;-54
2024/02/20 00:44:50;;;;;;;;;;;;;;;-4.07;100.00;101627.42;109519;1250;59915;-54
2024/02/20 00:47:18;;;;;;;;;;;;;;;-4.04;100.00;101627.13;109476;1250;76011;-55
2024/02/20 00:49:46;;;;;;;;;;;;;;;-4.01;100.00;101624.81;109446;1250;67378;-54
2024/02/20 00:52:14;;;;;;;;;;;;;;;-4.01;100.00;101619.55;109489;1251;71069;-54
2024/02/20 00:54:41;;;;;;;;;;;;;;;-4.00;100.00;101619.69;109460;1251;61733;-54
2024/02/20 00:57:09;;;;;;;;;;;;;;;-3.98;100.00;101622.82;109513;1250;59764;-55
2024/02/20 00:59:38;;;;;;;;;;;;;;;-3.96;100.00;101624.11;109422;1251;74577;-54
2024/02/20 01:02:10;;;;;;;;;;;;;;;-3.95;100.00;101622.18;109521;1250;66095;-54
2024/02/20 01:04:39;;;;;;;;;;;;;;;-3.95;100.00;101622.70;109522;1250;72709;-54
2024/02/20 01:07:07;;;;;;;;;;;;;;;-3.96;100.00;101625.13;109475;1251;60201;-60
2024/02/20 01:09:36;;;;;;;;;;;;;;;-3.97;100.00;101626.03;109525;1251;60844;-55
2024/02/20 01:12:03;;;;;;;;;;;;;;;-4.00;100.00;101622.91;109509;1250;75604;-55
2024/02/20 01:14:31;;;;;;;;;;;;;;;-4.02;100.00;101624.83;109506;1251;67019;-54
2024/02/20 01:16:59;;;;;;;;;;;;;;;-4.03;100.00;101624.54;109486;1251;71441;-54
2024/02/20 01:19:26;;;;;;;;;;;;;;;-4.05;100.00;101622.40;109452;1250;59788;-54
2024/02/20 01:21:54;;;;;;;;;;;;;;;-4.05;100.00;101618.67;109490;1250;59861;-54
2024/02/20 01:24:22;;;;;;;;;;;;;;;-4.04;100.00;101622.21;109539;1250;75517;-54
2024/02/20 01:26:49;;;;;;;;;;;;;;;-4.03;100.00;101619.41;109506;1250;67116;-55
2024/02/20 01:29:21;;;;;;;;;;;;;;;-4.00;100.00;101616.11;109468;1251;72723;-60
2024/02/20 01:31:49;;;;;;;;;;;;;;;-3.99;100.00;101618.94;109481;1251;62024;-54
2024/02/20 01:34:17;;;;;;;;;;;;;;;-3.97;100.00;101619.55;109537;1250;59763;-55
2024/02/20 01:36:45;;;;;;;;;;;;;;;-3.95;100.00;101619.64;109525;1250;74281;-55
2024/02/20 01:39:12;;;;;;;;;;;;;;;-3.92;100.00;101618.01;109491;1251;65632;-54
2024/02/20 01:41:40;;;;;;;;;;;;;;;-3.88;100.00;101620.10;109453;1251;73165;-54
2024/02/20 01:44:08;;;;;;;;;;;;;;;-3.86;100.00;101621.72;109469;1253;59768;-54
2024/02/20 01:46:36;;;;;;;;;;;;;;;-3.87;100.00;101622.06;109499;1251;60018;-55
2024/02/20 01:49:04;;;;;;;;;;;;;;;-3.86;100.00;101627.31;109476;1251;76034;-54
2024/02/20 01:51:32;;;;;;;;;;;;;;;-3.86;100.00;101626.63;109452;1257;66965;-55
2024/02/20 01:54:00;;;;;;;;;;;;;;;-3.85;100.00;101628.96;109494;1251;71423;-55
2024/02/20 01:56:27;;;;;;;;;;;;;;;-3.84;100.00;101626.55;109530;1251;59788;-54
2024/02/20 01:58:56;;;;;;;;;;;;;;;-3.84;100.00;101622.98;109469;1251;59750;-54
2024/02/20 02:01:25;;;;;;;;;;;;;;;-3.83;100.00;101624.30;109443;1251;75533;-60
2024/02/20 02:03:53;;;;;;;;;;;;;;;-3.84;100.00;101622.83;109491;1251;68148;-54
2024/02/20 02:06:27;;;;;;;;;;;;;;;-3.85;100.00;101622.19;109461;1251;71458;-55
2024/02/20 02:08:55;;;;;;;;;;;;;;;-3.85;100.00;101618.48;109436;1254;60496;-54
2024/02/20 02:11:24;;;;;;;;;;;;;;;-3.86;100.00;101618.48;109447;1251;59701;-56
2024/02/20 02:13:52;;;;;;;;;;;;;;;-3.86;100.00;101615.60;109478;1251;75460;-54
2024/02/20 02:16:19;;;;;;;;;;;;;;;-3.85;100.00;101616.73;109506;1251;67068;-54
2024/02/20 02:18:48;;;;;;;;;;;;;;;-3.83;100.00;101616.51;109455;1251;71392;-56
2024/02/20 02:21:16;;;;;;;;;;;;;;;-3.83;100.00;101618.19;109511;1252;59695;-54
2024/02/20 02:23:44;;;;;;;;;;;;;;;-3.82;100.00;101617.32;109478;1251;59641;-55
2024/02/20 02:26:11;;;;;;;;;;;;;;;-3.81;100.00;101618.11;109474;1251;74224;-56
2024/02/20 02:28:39;;;;;;;;;;;;;;;-3.78;100.00;101619.89;109492;1251;67422;-54
2024/02/20 02:31:06;;;;;;;;;;;;;;;-3.78;100.00;101618.19;109519;1251;72626;-54
2024/02/20 02:33:34;;;;;;;;;;;;;;;-3.76;100.00;101615.73;109468;1253;60066;-60
2024/02/20 02:36:02;;;;;;;;;;;;;;;-3.75;100.00;101618.42;109478;1251;60078;-55
2024/02/20 02:38:30;;;;;;;;;;;;;;;-3.74;100.00;101619.40;109565;1250;74556;-55
2024/02/20 02:40:59;;;;;;;;;;;;;;;-3.73;100.00;101620.37;109494;1251;69291;-54
2024/02/20 02:43:26;;;;;;;;;;;;;;;-3.71;100.00;101619.95;109490;1251;72688;-55
2024/02/20 02:45:54;;;;;;;;;;;;;;;-3.70;100.00;101622.80;109517;1253;60049;-59
2024/02/20 02:48:21;;;;;;;;;;;;;;;-3.69;100.00;101620.90;109559;1251;59776;-54
2024/02/20 02:50:49;;;;;;;;;;;;;;;-3.69;100.00;101619.00;109514;1253;75544;-54
2024/02/20 02:53:17;;;;;;;;;;;;;;;-3.68;100.00;101616.44;109480;1251;66961;-55
2024/02/20 02:55:44;;;;;;;;;;;;;;;-3.68;100.00;101616.77;109464;1251;72938;-55
2024/02/20 02:58:12;;;;;;;;;;;;;;;-3.68;100.00;101617.27;109489;1251;59753;-59
2024/02/20 03:00:40;;;;;;;;;;;;;;;-3.67;100.00;101615.91;109524;1251;59747;-55
2024/02/20 03:03:07;;;;;;;;;;;;;;;-3.67;100.00;101621.18;109553;1251;75495;-55
2024/02/20 03:05:37;;;;;;;;;;;;;;;-3.68;100.00;101622.88;109534;1251;66102;-55
2024/02/20 03:08:06;;;;;;;;;;;;;;;-3.69;100.00;101626.80;109521;1253;72734;-54
2024/02/20 03:10:33;;;;;;;;;;;;;;;-3.68;100.00;101628.83;109437;1251;61769;-54
2024/02/20 03:13:01;;;;;;;;;;;;;;;-3.66;100.00;101623.34;109534;1251;59694;-55
2024/02/20 03:15:29;;;;;;;;;;;;;;;-3.64;100.00;101624.10;109470;1250;75498;-55
2024/02/20 03:17:56;;;;;;;;;;;;;;;-3.64;100.00;101624.43;109537;1251;65990;-54
2024/02/20 03:20:24;;;;;;;;;;;;;;;-3.64;100.00;101626.99;109429;1251;71430;-54
2024/02/20 03:22:52;;;;;;;;;;;;;;;-3.64;100.00;101632.07;109496;1253;59726;-54
2024/02/20 03:25:20;;;;;;;;;;;;;;;-3.64;100.00;101627.68;109518;1251;59873;-54
2024/02/20 03:27:49;;;;;;;;;;;;;;;-3.64;100.00;101631.41;109525;1251;75465;-55
2024/02/20 03:30:18;;;;;;;;;;;;;;;-3.62;100.00;101634.92;109474;1251;66839;-55
2024/02/20 03:32:46;;;;;;;;;;;;;;;-3.59;100.00;101636.32;109502;1253;72763;-55
2024/02/20 03:35:20;;;;;;;;;;;;;;;-3.58;100.00;101636.45;109492;1251;59790;-54
2024/02/20 03:37:48;;;;;;;;;;;;;;;-3.58;100.00;101638.16;109497;1251;59874;-56
2024/02/20 03:40:16;;;;;;;;;;;;;;;-3.59;100.00;101637.52;109434;1254;74240;-55
2024/02/20 03:42:44;;;;;;;;;;;;;;;-3.58;100.00;101633.08;109542;1251;66141;-54
2024/02/20 03:45:12;;;;;;;;;;;;;;;-3.58;100.00;101632.91;109481;1251;72711;-54
2024/02/20 03:47:39;;;;;;;;;;;;;;;-3.58;100.00;101631.19;109523;1251;59976;-55
2024/02/20 03:50:07;;;;;;;;;;;;;;;-3.59;100.00;101632.06;109429;1251;59831;-55
2024/02/20 03:52:35;;;;;;;;;;;;;;;-3.62;100.00;101631.18;109502;1251;74634;-55
2024/02/20 03:55:03;;;;;;;;;;;;;;;-3.65;100.00;101629.40;109487;1251;65793;-55
2024/02/20 03:57:30;;;;;;;;;;;;;;;-3.68;100.00;101631.02;109503;1251;72743;-55
2024/02/20 03:59:58;;;;;;;;;;;;;;;-3.69;100.00;101628.88;109492;1251;60189;-59
2024/02/20 04:02:30;;;;;;;;;;;;;;;-3.70;100.00;101627.06;109513;1251;59888;-54
2024/02/20 04:04:58;;;;;;;;;;;;;;;-3.70;100.00;101629.61;109464;1251;75553;-56
2024/02/20 04:07:26;;;;;;;;;;;;;;;-3.72;100.00;101624.05;109427;1251;67441;-55
2024/02/20 04:09:53;;;;;;;;;;;;;;;-3.73;100.00;101626.98;109447;1251;73133;-60
2024/02/20 04:12:21;;;;;;;;;;;;;;;-3.74;100.00;101625.86;109437;1251;59996;-55
2024/02/20 04:14:48;;;;;;;;;;;;;;;-3.74;100.00;101622.80;109528;1251;60057;-54
2024/02/20 04:17:16;;;;;;;;;;;;;;;-3.74;100.00;101626.20;109495;1251;74308;-55
2024/02/20 04:19:43;;;;;;;;;;;;;;;-3.75;100.00;101624.70;109510;1250;65600;-54
2024/02/20 04:22:11;;;;;;;;;;;;;;;-3.75;100.00;101630.47;109516;1252;72772;-55
2024/02/20 04:24:39;;;;;;;;;;;;;;;-3.75;100.00;101629.63;109460;1251;61120;-54
2024/02/20 04:27:06;;;;;;;;;;;;;;;-3.73;100.00;101636.67;109540;1251;59706;-55
2024/02/20 04:29:34;;;;;;;;;;;;;;;-3.71;100.00;101640.69;109479;1251;74655;-55
2024/02/20 04:32:01;;;;;;;;;;;;;;;-3.70;100.00;101642.18;109489;1251;67443;-55
2024/02/20 04:34:29;;;;;;;;;;;;;;;-3.68;100.00;101646.16;109481;1253;71903;-55
2024/02/20 04:36:56;;;;;;;;;;;;;;;-3.68;100.00;101646.15;109522;1251;60144;-54
2024/02/20 04:39:24;;;;;;;;;;;;;;;-3.66;100.00;101651.35;109519;1251;59966;-55
2024/02/20 04:41:51;;;;;;;;;;;;;;;-3.64;100.00;101655.54;109474;1251;74552;-56
2024/02/20 04:44:19;;;;;;;;;;;;;;;-3.61;100.00;101664.61;109511;1251;67705;-55
2024/02/20 04:46:46;;;;;;;;;;;;;;;-3.58;100.00;101664.98;109468;1251;73380;-54
2024/02/20 04:49:14;;;;;;;;;;;;;;;-3.55;100.00;101673.40;109507;1251;60291;-55
2024/02/20 04:51:42;;;;;;;;;;;;;;;-3.51;100.00;101674.93;109514;1250;59687;-54
2024/02/20 04:54:09;;;;;;;;;;;;;;;-3.49;100.00;101675.52;109493;1251;75465;-54
2024/02/20 04:56:37;;;;;;;;;;;;;;;-3.47;100.00;101681.42;109453;1251;66933;-56
2024/02/20 04:59:04;;;;;;;;;;;;;;;-3.46;100.00;101688.48;109466;1252;72695;-54
2024/02/20 05:01:32;;;;;;;;;;;;;;;-3.45;100.00;101687.45;109461;1251;61727;-55
2024/02/20 05:04:00;;;;;;;;;;;;;;;-3.45;100.00;101691.17;109503;1251;59780;-54
2024/02/20 05:06:28;;;;;;;;;;;;;;;-3.45;100.00;101689.98;109555;1251;75591;-54
2024/02/20 05:08:55;;;;;;;;;;;;;;;-3.44;100.00;101690.84;109481;1251;65680;-55
2024/02/20 05:11:23;;;;;;;;;;;;;;;-3.45;100.00;101692.36;109484;1252;71455;-55
2024/02/20 05:13:50;;;;;;;;;;;;;;;-3.45;100.00;101698.83;109515;1251;60888;-55
2024/02/20 05:16:18;;;;;;;;;;;;;;;-3.44;100.00;101701.52;109492;1250;59798;-55
2024/02/20 05:18:45;;;;;;;;;;;;;;;-3.45;100.00;101696.77;109491;1251;75427;-55
2024/02/20 05:21:13;;;;;;;;;;;;;;;-3.43;100.00;101695.67;109511;1251;67813;-56
2024/02/20 05:23:40;;;;;;;;;;;;;;;-3.43;100.00;101694.99;109501;1251;72697;-55
2024/02/20 05:26:08;;;;;;;;;;;;;;;-3.43;100.00;101691.13;109494;1251;59771;-54
2024/02/20 05:28:35;;;;;;;;;;;;;;;-3.44;100.00;101692.84;109480;1256;60021;-55
2024/02/20 05:31:05;;;;;;;;;;;;;;;-3.44;100.00;101693.00;109492;1252;76081;-54
2024/02/20 05:33:35;;;;;;;;;;;;;;;-3.43;100.00;101691.42;109525;1251;66974;-55
2024/02/20 05:36:03;;;;;;;;;;;;;;;-3.41;100.00;101690.86;109481;1251;71627;-55
2024/02/20 05:38:30;;;;;;;;;;;;;;;-3.38;100.00;101694.52;109523;1251;60214;-58
2024/02/20 05:40:58;;;;;;;;;;;;;;;-3.36;100.00;101697.80;109508;1251;59713;-55
2024/02/20 05:43:25;;;;;;;;;;;;;;;-3.32;100.00;101697.66;109501;1251;75620;-55
2024/02/20 05:45:53;;;;;;;;;;;;;;;-3.26;100.00;101704.54;109533;1251;66986;-55
2024/02/20 05:48:20;;;;;;;;;;;;;;;-3.16;100.00;101700.98;109501;1251;71417;-59
2024/02/20 05:50:48;;;;;;;;;;;;;;;-3.07;100.00;101700.27;109461;1254;59952;-56
2024/02/20 05:53:16;;;;;;;;;;;;;;;-3.00;100.00;101702.88;109492;1251;60088;-54
2024/02/20 05:55:43;;;;;;;;;;;;;;;-2.93;100.00;101709.08;109311;1254;75508;-55
2024/02/20 05:58:11;;;;;;;;;;;;;;;-2.88;100.00;101711.08;109177;1253;67209;-55
2024/02/20 06:00:38;;;;;;;;;;;;;;;-2.82;100.00;101710.67;109113;1257;71246;-56
2024/02/20 06:03:06;;;;;;;;;;;;;;;-2.77;100.00;101707.73;109159;1254;59713;-56
2024/02/20 06:05:33;;;;;;;;;;;;;;;-2.69;100.00;101709.83;109215;1253;60221;-55
2024/02/20 06:08:01;;;;;;;;;;;;;;;-2.63;100.00;101712.14;109197;1253;75199;-55
2024/02/20 06:10:29;;;;;;;;;;;;;;;-2.58;100.00;101710.42;109208;1253;65687;-55
2024/02/20 06:12:56;;;;;;;;;;;;;;;-2.55;100.00;101711.12;109196;1257;71463;-55
2024/02/20 06:15:24;;;;;;;;;;;;;;;-2.52;100.00;101713.91;109242;1254;60484;-54
2024/02/20 06:17:51;;;;;;;;;;;;;;;-2.51;100.00;101714.67;109221;1254;59721;-56
2024/02/20 06:20:19;;;;;;;;;;;;;;;-2.49;100.00;101710.02;109247;1252;74773;-54
2024/02/20 06:22:46;;;;;;;;;;;;;;;-2.44;100.00;101714.90;109225;1253;66967;-60
2024/02/20 06:25:15;;;;;;;;;;;;;;;-2.40;100.00;101710.47;109229;1253;72744;-54
2024/02/20 06:27:45;;;;;;;;;;;;;;;-2.35;100.00;101703.98;109235;1255;59744;-55
2024/02/20 06:30:12;;;;;;;;;;;;;;;-2.30;100.00;101702.93;109186;1259;60067;-56
2024/02/20 06:32:40;;;;;;;;;;;;;;;-2.26;100.00;101703.77;109218;1253;75551;-56
2024/02/20 06:35:08;;;;;;;;;;;;;;;-2.17;100.00;101698.11;109213;1253;68044;-54
2024/02/20 06:37:35;;;;;;;;;;;;;;;-2.10;100.00;101696.96;109227;1254;72750;-55
2024/02/20 06:40:04;;;;;;;;;;;;;;;-2.03;100.00;101695.46;109276;1257;59712;-54
2024/02/20 06:42:31;;;;;;;;;;;;;;;-1.97;100.00;101697.59;109279;1253;60039;-54
2024/02/20 06:44:59;;;;;;;;;;;;;;;-1.93;100.00;101696.55;109374;1251;75739;-56
2024/02/20 06:47:27;;;;;;;;;;;;;;;-1.89;100.00;101699.27;109344;1251;67735;-56
2024/02/20 06:49:54;;;;;;;;;;;;;;;-1.82;100.00;101701.89;109344;1254;72733;-55
2024/02/20 06:52:22;;;;;;;;;;;;;;;-1.74;100.00;101703.73;109393;1253;60154;-55
2024/02/20 06:54:49;;;;;;;;;;;;;;;-1.67;100.00;101701.56;109363;1251;59915;-54
2024/02/20 06:57:17;;;;;;;;;;;;;;;-1.61;100.00;101697.52;109362;1251;74222;-58
2024/02/20 06:59:44;;;;;;;;;;;;;;;-1.53;100.00;101695.62;109494;1251;64856;-54
2024/02/20 07:02:12;;;;;;;;;;;;;;;-1.52;100.00;101698.31;109324;1251;72461;-54
2024/02/20 07:04:40;;;;;;;;;;;;;;;-1.55;100.00;101696.77;109335;1251;60492;-55
2024/02/20 07:07:08;;;;;;;;;;;;;;;-1.54;100.00;101699.95;109436;1251;60231;-54
2024/02/20 07:09:35;;;;;;;;;;;;;;;-1.51;100.00;101694.67;109395;1251;74254;-54
2024/02/20 07:12:03;;;;;;;;;;;;;;;-1.44;100.00;101688.21;109454;1251;65723;-55
2024/02/20 07:14:31;;;;;;;;;;;;;;;-1.38;100.00;101691.19;109430;1251;71531;-55
2024/02/20 07:16:58;;;;;;;;;;;;;;;-1.32;100.00;101685.77;109385;1254;59748;-56
2024/02/20 07:19:26;;;;;;;;;;;;;;;-1.25;100.00;101688.17;109428;1251;62224;-60
2024/02/20 07:21:53;;;;;;;;;;;;;;;-1.19;100.00;101682.98;109403;1251;75574;-55
2024/02/20 07:24:21;;;;;;;;;;;;;;;-1.12;100.00;101681.78;109460;1251;67203;-54
2024/02/20 07:26:49;;;;;;;;;;;;;;;-1.04;100.00;101678.52;109448;1251;71277;-54
2024/02/20 07:29:18;;;;;;;;;;;;;;;-0.86;100.00;101677.63;109422;1252;59834;-54
2024/02/20 07:31:46;;;;;;;;;;;;;;;-0.67;100.00;101676.88;109413;1251;59930;-54
2024/02/20 07:34:13;;;;;;;;;;;;;;;-0.44;100.00;101674.55;109437;1251;75924;-55
2024/02/20 07:36:47;;;;;;;;;;;;;;;-0.15;100.00;101668.27;109420;1251;66936;-54
2024/02/20 07:39:16;;;;;;;;;;;;;;;0.10;100.00;101669.19;109495;1251;71723;-55
2024/02/20 07:41:44;;;;;;;;;;;;;;;0.26;100.00;101666.98;109418;1253;59774;-59
2024/02/20 07:44:11;;;;;;;;;;;;;;;0.41;100.00;101662.73;109421;1251;59911;-54
2024/02/20 07:46:38;;;;;;;;;;;;;;;0.61;100.00;101661.48;109434;1251;75774;-55
2024/02/20 07:49:06;;;;;;;;;;;;;;;0.75;100.00;101656.27;109444;1251;65651;-55
2024/02/20 07:51:34;;;;;;;;;;;;;;;0.90;100.00;101654.23;109298;1251;74937;-55
2024/02/20 07:54:02;;;;;;;;;;;;;;;1.10;100.00;101653.62;109390;1251;59819;-54
2024/02/20 07:56:30;;;;;;;;;;;;;;;1.28;100.00;101650.71;109426;1251;60874;-54
2024/02/20 07:58:57;;;;;;;;;;;;;;;1.41;100.00;101652.56;109431;1251;78792;-54
2024/02/20 08:01:25;;;;;;;;;;;;;;;1.43;100.00;101651.08;109437;1251;68867;-59
2024/02/20 08:03:53;;;;;;;;;;;;;;;1.49;100.00;101652.08;109483;1251;73774;-54
2024/02/20 08:06:21;;;;;;;;;;;;;;;1.71;100.00;101648.86;109413;1251;59873;-55
2024/02/20 08:08:49;;;;;;;;;;;;;;;1.80;100.00;101654.34;109416;1251;60840;-55
2024/02/20 08:11:16;;;;;;;;;;;;;;;1.79;100.00;101659.37;109463;1251;74257;-55
2024/02/20 08:13:44;;;;;;;;;;;;;;;1.72;100.00;101656.85;109415;1251;66277;-59
2024/02/20 08:16:12;;;;;;;;;;;;;;;1.53;100.00;101656.48;109464;1251;72698;-54
2024/02/20 08:18:40;;;;;;;;;;;;;;;1.42;100.00;101653.83;109434;1251;59743;-54
2024/02/20 08:21:10;;;;;;;;;;;;;;;1.50;100.00;101657.49;109391;1251;61881;-54
2024/02/20 08:23:37;;;;;;;;;;;;;;;1.64;100.00;101663.98;109437;1251;76367;-54
2024/02/20 08:26:05;;;;;;;;;;;;;;;1.64;100.00;101654.06;109315;1253;68323;-56
2024/02/20 08:28:33;;;;;;;;;;;;;;;1.59;100.00;101655.58;109331;1251;72754;-55
2024/02/20 08:31:00;;;;;;;;;;;;;;;1.46;99.99;101657.34;109363;1254;61350;-57
2024/02/20 08:33:28;;;;;;;;;;;;;;;1.28;99.25;101651.06;109306;1253;62199;-56
2024/02/20 08:35:56;;;;;;;;;;;;;;;1.25;96.71;101656.23;109294;1253;77828;-56
2024/02/20 08:38:23;;;;;;;;;;;;;;;1.20;96.19;101656.65;109324;1254;65692;-53
2024/02/20 08:40:51;;;;;;;;;;;;;;;1.19;96.66;101658.95;109333;1252;74837;-53
2024/02/20 08:43:19;;;;;;;;;;;;;;;1.17;95.54;101659.23;109299;1254;59730;-56
2024/02/20 08:45:46;;;;;;;;;;;;;;;1.13;96.38;101665.27;109285;1253;61891;-59
2024/02/20 08:48:14;;;;;;;;;;;;;;;1.05;96.60;101668.61;109372;1254;78873;-54
2024/02/20 08:50:41;;;;;;;;;;;;;;;0.91;99.08;101670.45;109324;1253;70686;-54
2024/02/20 08:53:10;;;;;;;;;;;;;;;0.82;100.00;101667.86;109303;1253;76122;-55
2024/02/20 08:55:38;;;;;;;;;;;;;;;0.79;100.00;101670.30;109272;1253;61015;-61
2024/02/20 08:58:06;;;;;;;;;;;;;;;0.69;100.00;101672.34;109275;1252;61158;-55
2024/02/20 09:00:34;;;;;;;;;;;;;;;0.49;100.00;101664.92;109322;1252;78116;-55
2024/02/20 09:03:06;;;;;;;;;;;;;;;0.34;100.00;101663.16;109328;1253;68071;-55
2024/02/20 09:05:34;;;;;;;;;;;;;;;0.27;100.00;101660.63;109283;1252;72650;-55
2024/02/20 09:08:03;;;;;;;;;;;;;;;0.15;100.00;101659.02;109219;1252;60336;-55
2024/02/20 09:10:30;;;;;;;;;;;;;;;0.07;100.00;101660.30;109316;1254;62008;-55
2024/02/20 09:12:59;;;;;;;;;;;;;;;0.04;100.00;101660.30;109306;1252;77614;-55
2024/02/20 09:15:26;;;;;;;;;;;;;;;0.06;100.00;101660.17;109332;1253;68836;-55
2024/02/20 09:17:54;;;;;;;;;;;;;;;0.08;100.00;101657.66;109256;1254;72605;-56
2024/02/20 09:20:21;;;;;;;;;;;;;;;0.07;100.00;101657.40;109300;1252;60177;-57
2024/02/20 09:22:49;;;;;;;;;;;;;;;0.05;100.00;101654.10;109346;1252;59911;-55
2024/02/20 09:25:17;;;;;;;;;;;;;;;0.03;100.00;101644.45;109351;1252;77448;-55
2024/02/20 09:27:45;;;;;;;;;;;;;;;0.04;100.00;101643.02;109323;1252;67824;-55
2024/02/20 09:30:12;;;;;;;;;;;;;;;0.12;100.00;101643.44;109272;1254;75024;-55
2024/02/20 09:32:43;;;;;;;;;;;;;;;0.21;100.00;101643.49;109327;1252;61372;-55
2024/02/20 09:35:11;;;;;;;;;;;;;;;0.27;100.00;101643.52;109351;1254;61209;-55
2024/02/20 09:37:39;;;;;;;;;;;;;;;0.29;100.00;101640.84;109331;1252;77583;-55
2024/02/20 09:40:06;;;;;;;;;;;;;;;0.28;100.00;101640.05;109275;1254;68067;-60
2024/02/20 09:42:38;;;;;;;;;;;;;;;0.31;100.00;101641.45;109341;1253;73755;-55
2024/02/20 09:45:10;;;;;;;;;;;;;;;0.37;100.00;101641.27;109315;1254;60240;-55
2024/02/20 09:47:37;;;;;;;;;;;;;;;0.37;100.00;101637.81;109266;1253;61160;-56
2024/02/20 09:50:05;;;;;;;;;;;;;;;0.37;100.00;101630.49;109286;1252;77544;-56
2024/02/20 09:52:33;;;;;;;;;;;;;;;0.38;100.00;101630.44;109318;1253;68844;-55
2024/02/20 09:55:01;;;;;;;;;;;;;;;0.40;100.00;101623.81;109309;1252;74835;-55
2024/02/20 09:57:29;;;;;;;;;;;;;;;0.44;100.00;101623.73;109291;1253;61547;-55
2024/02/20 09:59:56;;;;;;;;;;;;;;;0.51;100.00;101624.26;109315;1253;61926;-56
2024/02/20 10:02:28;;;;;;;;;;;;;;;0.60;100.00;101620.86;109254;1252;77544;-56
2024/02/20 10:04:55;;;;;;;;;;;;;;;0.58;98.71;101618.55;109328;1253;68104;-54
2024/02/20 10:07:24;;;;;;;;;;;;;;;0.49;97.44;101611.04;109314;1253;74846;-54
2024/02/20 10:09:52;;;;;;;;;;;;;;;0.49;99.54;101609.30;109294;1253;61285;-54
2024/02/20 10:12:25;;;;;;;;;;;;;;;0.58;100.00;101603.88;109294;1253;59800;-54
2024/02/20 10:14:53;;;;;;;;;;;;;;;0.64;100.00;101601.45;109307;1252;77426;-54
2024/02/20 10:17:22;;;;;;;;;;;;;;;0.67;100.00;101600.79;109356;1253;67845;-55
2024/02/20 10:19:50;;;;;;;;;;;;;;;0.65;98.61;101597.66;109322;1252;75280;-59
2024/02/20 10:22:23;;;;;;;;;;;;;;;0.58;97.10;101596.69;109272;1253;61435;-53
2024/02/20 10:25:01;;;;;;;;;;;;;;;0.53;98.82;101595.27;109316;1253;61916;-56
2024/02/20 10:27:29;;;;;;;;;;;;;;;0.53;99.73;101595.23;109308;1251;77448;-53
2024/02/20 10:29:57;;;;;;;;;;;;;;;0.55;100.00;101596.33;109259;1253;68967;-54
2024/02/20 10:32:24;;;;;;;;;;;;;;;0.59;100.00;101593.36;109312;1253;74832;-54
2024/02/20 10:34:58;;;;;;;;;;;;;;;0.59;100.00;101596.07;109300;1253;60389;-55
2024/02/20 10:37:27;;;;;;;;;;;;;;;0.60;100.00;101595.69;109322;1252;61965;-53
2024/02/20 10:40:02;;;;;;;;;;;;;;;0.62;100.00;101593.01;109263;1253;77808;-58
2024/02/20 10:42:49;;;;;;;;;;;;;;;0.69;99.26;101590.93;109359;1252;68934;-53
2024/02/20 10:45:17;;;;;;;;;;;;;;;0.67;96.98;101589.82;109304;1252;72661;-53
2024/02/20 10:47:45;;;;;;;;;;;;;;;0.65;96.75;101591.48;109237;1252;60388;-55
2024/02/20 10:50:15;;;;;;;;;;;;;;;0.67;95.86;101588.63;109329;1252;61812;-54
2024/02/20 10:52:44;;;;;;;;;;;;;;;0.63;93.77;101587.65;109344;1252;76570;-55
2024/02/20 10:55:12;;;;;;;;;;;;;;;0.58;93.14;101582.96;109363;1253;68863;-54
2024/02/20 10:57:59;;;;;;;;;;;;;;;0.59;94.86;101581.89;109281;1252;73644;-55
2024/02/20 11:00:27;;;;;;;;;;;;;;;0.62;96.62;101583.79;109306;1253;62330;-54
2024/02/20 11:02:55;;;;;;;;;;;;;;;0.63;96.50;101580.47;109312;1253;59985;-54
2024/02/20 11:05:23;;;;;;;;;;;;;;;0.68;96.71;101577.81;109330;1252;78005;-55
2024/02/20 11:07:51;;;;;;;;;;;;;;;0.68;94.33;101579.66;109260;1253;68742;-56
2024/02/20 11:10:20;;;;;;;;;;;;;;;0.61;92.78;101578.39;109368;1252;75138;-55
2024/02/20 11:12:49;;;;;;;;;;;;;;;0.55;93.26;101572.58;109291;1252;60325;-55
2024/02/20 11:15:20;;;;;;;;;;;;;;;0.53;94.52;101571.99;109294;1252;62750;-54
2024/02/20 11:17:49;;;;;;;;;;;;;;;0.49;95.28;101571.35;109349;1252;78368;-60
2024/02/20 11:20:18;;;;;;;;;;;;;;;0.49;96.56;101573.02;109310;1253;67831;-56
2024/02/20 11:22:46;;;;;;;;;;;;;;;0.51;96.04;101576.85;109299;1252;74947;-56
2024/02/20 11:25:14;;;;;;;;;;;;;;;0.50;94.93;101572.66;109021;1251;358516;-55
2024/02/20 11:27:43;;;;;;;;;;;;;;;0.55;96.83;101570.02;109312;1252;61246;-55
2024/02/20 11:30:12;;;;;;;;;;;;;;;0.61;97.25;101572.05;109304;1252;76516;-54
2024/02/20 11:32:40;;;;;;;;;;;;;;;0.60;92.76;101572.96;109468;1253;67760;-54
2024/02/20 11:35:21;;;;;;;;;;;;;;;0.56;91.88;101573.88;109332;1253;73782;-54
2024/02/20 11:37:50;;;;;;;;;;;;;;;0.51;89.99;101571.94;109420;1253;59873;-61
2024/02/20 11:40:22;;;;;;;;;;;;;;;0.45;89.66;101566.23;109343;1252;62079;-55
2024/02/20 11:42:50;;;;;;;;;;;;;;;0.46;89.51;101566.73;109320;1254;76623;-54
2024/02/20 11:45:22;;;;;;;;;;;;;;;0.46;89.72;101562.09;109475;1252;69400;-54
2024/02/20 11:48:06;;;;;;;;;;;;;;;0.49;90.89;101558.35;109350;1253;74790;-59
2024/02/20 11:50:37;;;;;;;;;;;;;;;0.49;91.42;101556.48;109316;1253;60482;-54
2024/02/20 11:53:11;;;;;;;;;;;;;;;0.44;91.91;101556.08;109348;1253;62363;-54
2024/02/20 11:55:39;;;;;;;;;;;;;;;0.38;93.30;101553.67;109326;1253;77561;-54
2024/02/20 11:58:07;;;;;;;;;;;;;;;0.32;93.10;101552.13;109327;1257;68614;-54
2024/02/20 12:00:35;;;;;;;;;;;;;;;0.23;93.26;101550.01;109347;1252;73650;-54
2024/02/20 12:03:03;;;;;;;;;;;;;;;0.17;94.56;101547.48;109286;1252;62076;-57
2024/02/20 12:05:40;;;;;;;;;;;;;;;0.15;96.22;101549.27;109353;1252;59961;-58
2024/02/20 12:08:16;;;;;;;;;;;;;;;0.17;97.17;101545.89;109360;1253;77012;-54
2024/02/20 12:10:44;;;;;;;;;;;;;;;0.17;98.18;101542.69;109476;1252;67865;-54
2024/02/20 12:13:16;;;;;;;;;;;;;;;0.11;98.23;101541.15;109310;1252;72854;-54
2024/02/20 12:15:44;;;;;;;;;;;;;;;0.06;99.47;101542.79;109291;1252;60474;-54
2024/02/20 12:18:11;;;;;;;;;;;;;;;0.01;100.00;101547.14;109354;1252;60563;-54
2024/02/20 12:20:39;;;;;;;;;;;;;;;-0.06;99.99;101542.20;109286;1252;77056;-55
2024/02/20 12:23:07;;;;;;;;;;;;;;;-0.09;100.00;101543.42;109240;1252;67658;-59
2024/02/20 12:25:35;;;;;;;;;;;;;;;-0.10;100.00;101550.65;109293;1252;74735;-55
2024/02/20 12:28:03;;;;;;;;;;;;;;;-0.11;100.00;101547.64;109323;1253;61196;-57